Time;durP1;ratioP1;P1;durP2;ratioP2;P2;SDS_P1;SDS_P2;PMS_P1;PMS_P2;Temp;Humidity;BMP_temperature;BMP_pressure;BME280_temperature;BME280_humidity;BME280_pressure;Samples;Min_cycle;Max_cycle;Signal;HPM_P1;HPM_P2
2022/07/02 00:01:23;;;;;;;1.43;1.00;;;16.40;98.20;;;;;;4966144;28;20477;-78
2022/07/02 00:03:51;;;;;;;1.50;1.10;;;16.30;98.20;;;;;;4983126;28;20482;-78
2022/07/02 00:06:20;;;;;;;1.50;1.00;;;16.30;98.20;;;;;;4967455;28;20543;-78
2022/07/02 00:08:50;;;;;;;1.50;1.10;;;16.30;98.20;;;;;;4981211;28;20461;-78
2022/07/02 00:11:18;;;;;;;1.47;0.90;;;16.30;98.20;;;;;;4968928;28;20485;-77
2022/07/02 00:13:45;;;;;;;1.50;1.00;;;16.20;98.20;;;;;;4970279;28;20573;-76
2022/07/02 00:16:13;;;;;;;1.50;0.97;;;16.20;98.20;;;;;;4965716;28;20484;-78
2022/07/02 00:18:39;;;;;;;1.50;1.00;;;16.10;98.20;;;;;;4981832;28;20533;-78
2022/07/02 00:21:06;;;;;;;1.50;1.00;;;16.10;98.20;;;;;;4963436;28;22142;-77
2022/07/02 00:23:33;;;;;;;1.50;1.00;;;16.10;98.20;;;;;;4985088;28;20564;-77
2022/07/02 00:26:04;;;;;;;1.50;1.00;;;16.10;98.20;;;;;;4964608;28;20482;-75
2022/07/02 00:28:34;;;;;;;1.50;1.00;;;16.10;98.20;;;;;;4984214;28;20844;-78
2022/07/02 00:31:01;;;;;;;1.47;0.97;;;16.10;98.20;;;;;;4963590;28;20470;-77
2022/07/02 00:33:34;;;;;;;1.50;1.00;;;16.10;98.20;;;;;;4986134;28;20486;-79
2022/07/02 00:36:02;;;;;;;1.50;1.07;;;16.00;98.20;;;;;;4972535;28;20457;-76
2022/07/02 00:38:28;;;;;;;1.47;0.90;;;16.00;98.20;;;;;;4971652;28;20466;-78
2022/07/02 00:40:56;;;;;;;1.43;1.00;;;15.90;98.20;;;;;;4963300;28;20473;-78
2022/07/02 00:43:24;;;;;;;1.50;1.10;;;15.90;98.20;;;;;;4986581;28;20489;-77
2022/07/02 00:45:52;;;;;;;1.50;1.00;;;15.90;98.20;;;;;;4962642;28;20462;-77
2022/07/02 00:48:19;;;;;;;1.50;1.00;;;15.90;98.20;;;;;;4986611;28;20510;-77
2022/07/02 00:50:45;;;;;;;1.47;0.90;;;15.90;98.20;;;;;;4969353;28;20470;-75
2022/07/02 00:53:12;;;;;;;1.50;1.07;;;15.90;98.20;;;;;;4987076;28;20498;-78
2022/07/02 00:55:39;;;;;;;1.50;1.00;;;15.80;98.20;;;;;;4972547;28;20477;-78
2022/07/02 00:58:06;;;;;;;1.50;0.90;;;15.80;98.20;;;;;;4971473;28;20556;-79
2022/07/02 01:00:34;;;;;;;1.47;1.00;;;15.70;98.20;;;;;;4972289;28;20469;-78
2022/07/02 01:03:08;;;;;;;1.50;1.10;;;15.70;98.20;;;;;;4977507;28;20503;-78
2022/07/02 01:05:35;;;;;;;1.50;1.00;;;15.70;98.20;;;;;;4972407;28;20470;-78
2022/07/02 01:10:49;;;;;;;1.50;1.00;;;15.70;98.20;;;;;;4965860;28;20971;-78
2022/07/02 01:13:17;;;;;;;1.47;1.00;;;15.70;98.20;;;;;;4988899;28;20969;-78
2022/07/02 01:15:46;;;;;;;1.50;1.00;;;15.70;98.20;;;;;;4973647;28;20958;-77
2022/07/02 01:18:17;;;;;;;1.50;1.00;;;15.70;98.20;;;;;;4973903;28;20492;-76
2022/07/02 01:20:44;;;;;;;1.50;1.00;;;15.60;98.20;;;;;;4968762;28;20867;-77
2022/07/02 01:23:12;;;;;;;1.50;1.10;;;15.60;98.20;;;;;;4963077;28;20838;-77
2022/07/02 01:25:39;;;;;;;1.50;1.10;;;15.60;98.20;;;;;;4975810;28;20462;-79
2022/07/02 01:28:06;;;;;;;1.43;1.00;;;15.60;98.20;;;;;;4981195;28;20567;-77
2022/07/02 01:30:33;;;;;;;1.50;1.00;;;15.60;98.20;;;;;;4975677;28;20454;-80
2022/07/02 01:33:00;;;;;;;1.47;1.00;;;15.50;98.20;;;;;;4973559;28;20489;-77
2022/07/02 01:35:27;;;;;;;1.50;1.00;;;15.50;98.20;;;;;;4967791;28;20462;-76
2022/07/02 01:37:53;;;;;;;1.50;1.00;;;15.50;98.20;;;;;;4980473;28;20489;-77
2022/07/02 01:40:22;;;;;;;1.50;1.00;;;15.50;98.20;;;;;;4969630;28;20462;-78
2022/07/02 01:42:48;;;;;;;1.50;1.00;;;15.40;98.20;;;;;;4968874;28;20485;-79
2022/07/02 01:45:15;;;;;;;1.50;1.03;;;15.40;98.20;;;;;;4966773;28;20490;-80
2022/07/02 01:47:42;;;;;;;1.50;1.00;;;15.30;98.20;;;;;;4976490;28;20473;-79
2022/07/02 01:50:09;;;;;;;1.47;1.00;;;15.30;98.20;;;;;;4974611;28;20466;-77
2022/07/02 01:52:36;;;;;;;1.50;1.00;;;15.30;98.20;;;;;;4973684;28;20489;-79
2022/07/02 01:55:03;;;;;;;1.50;0.97;;;15.20;98.20;;;;;;4976001;28;20504;-78
2022/07/02 01:57:35;;;;;;;1.50;1.00;;;15.20;98.20;;;;;;4978816;28;20910;-78
2022/07/02 02:00:02;;;;;;;1.50;1.10;;;15.20;98.20;;;;;;4975903;28;21275;-78
2022/07/02 02:02:29;;;;;;;1.43;1.00;;;15.20;98.20;;;;;;4974085;28;20484;-77
2022/07/02 02:04:56;;;;;;;1.50;1.00;;;15.10;98.20;;;;;;4977344;28;20458;-77
2022/07/02 02:07:23;;;;;;;1.50;1.10;;;15.10;98.20;;;;;;4978381;28;20568;-78
2022/07/02 02:09:50;;;;;;;1.50;1.00;;;15.10;98.20;;;;;;4974728;28;20466;-77
2022/07/02 02:12:16;;;;;;;1.50;1.10;;;15.10;98.20;;;;;;4976598;28;20477;-77
2022/07/02 02:14:45;;;;;;;1.50;1.00;;;15.10;98.20;;;;;;4975842;28;20501;-79
2022/07/02 02:17:12;;;;;;;1.50;1.00;;;15.10;98.20;;;;;;4971757;28;20494;-77
2022/07/02 02:19:38;;;;;;;1.50;1.10;;;15.10;98.20;;;;;;4977273;28;20473;-77
2022/07/02 02:22:06;;;;;;;1.50;1.00;;;15.10;98.20;;;;;;4973142;28;20466;-77
2022/07/02 02:24:32;;;;;;;1.50;1.10;;;15.00;98.20;;;;;;4974789;28;20550;-77
2022/07/02 02:26:59;;;;;;;1.50;1.00;;;15.00;98.20;;;;;;4973059;28;20489;-78
2022/07/02 02:29:28;;;;;;;1.50;1.10;;;15.00;98.20;;;;;;4979134;28;20466;-77
2022/07/02 02:31:56;;;;;;;1.50;1.00;;;14.90;98.20;;;;;;4971664;28;20489;-78
2022/07/02 02:34:23;;;;;;;1.50;1.00;;;14.90;98.20;;;;;;4980426;28;20497;-79
2022/07/02 02:36:50;;;;;;;1.50;1.10;;;14.90;98.20;;;;;;4973711;28;20493;-77
2022/07/02 02:39:16;;;;;;;1.50;1.00;;;14.90;98.20;;;;;;4973600;28;20480;-78
2022/07/02 02:41:43;;;;;;;1.50;1.00;;;14.90;98.20;;;;;;4968255;28;20503;-79
2022/07/02 02:44:10;;;;;;;1.47;1.00;;;14.90;98.20;;;;;;4981472;28;20485;-78
2022/07/02 02:46:37;;;;;;;1.50;1.00;;;14.90;98.20;;;;;;4969019;28;20493;-79
2022/07/02 02:49:05;;;;;;;1.50;1.10;;;14.80;98.20;;;;;;4979820;28;20881;-78
2022/07/02 02:51:32;;;;;;;1.50;1.00;;;14.80;98.20;;;;;;4973577;28;20470;-78
2022/07/02 02:53:59;;;;;;;1.47;1.00;;;14.70;98.20;;;;;;4974091;28;20521;-78
2022/07/02 02:56:25;;;;;;;1.50;1.00;;;14.70;98.20;;;;;;4968862;28;20481;-78
2022/07/02 02:58:52;;;;;;;1.50;1.07;;;14.70;98.20;;;;;;4984971;28;20486;-79
2022/07/02 03:01:19;;;;;;;1.50;1.00;;;14.80;98.20;;;;;;4967975;28;20481;-77
2022/07/02 03:03:46;;;;;;;1.50;1.10;;;14.80;98.20;;;;;;4984933;28;20508;-78
2022/07/02 03:06:14;;;;;;;1.50;1.00;;;14.80;98.20;;;;;;4966953;28;20891;-79
2022/07/02 03:08:41;;;;;;;1.50;1.00;;;14.80;98.20;;;;;;4996224;28;20446;-77
2022/07/02 03:11:07;;;;;;;1.50;1.00;;;14.80;98.20;;;;;;4976549;28;20527;-78
2022/07/02 03:13:34;;;;;;;1.50;1.00;;;14.80;98.20;;;;;;4986244;28;20494;-79
2022/07/02 03:16:01;;;;;;;1.47;1.00;;;14.80;98.20;;;;;;4975642;28;20461;-78
2022/07/02 03:18:28;;;;;;;1.50;1.00;;;14.80;98.20;;;;;;4975727;28;20457;-80
2022/07/02 03:20:55;;;;;;;1.50;1.00;;;14.80;98.20;;;;;;4962926;28;20470;-78
2022/07/02 03:23:23;;;;;;;1.50;1.00;;;14.80;98.20;;;;;;4988243;28;20478;-77
2022/07/02 03:25:50;;;;;;;1.50;1.00;;;14.70;98.20;;;;;;4966090;28;20472;-78
2022/07/02 03:28:16;;;;;;;1.50;1.00;;;14.70;98.20;;;;;;4984236;28;20565;-78
2022/07/02 03:30:43;;;;;;;1.47;1.00;;;14.70;98.20;;;;;;4972661;28;20497;-79
2022/07/02 03:33:10;;;;;;;1.50;1.00;;;14.70;98.20;;;;;;4978526;28;20505;-77
2022/07/02 03:35:37;;;;;;;1.50;1.00;;;14.70;98.20;;;;;;4971999;28;20472;-78
2022/07/02 03:38:03;;;;;;;1.50;1.20;;;14.80;98.20;;;;;;4969609;28;20468;-77
2022/07/02 03:40:32;;;;;;;1.50;1.00;;;14.80;98.20;;;;;;4968787;28;20472;-77
2022/07/02 03:42:58;;;;;;;1.50;1.00;;;14.70;98.20;;;;;;4974000;28;20524;-77
2022/07/02 03:45:25;;;;;;;1.50;1.00;;;14.70;98.20;;;;;;4968784;28;20473;-79
2022/07/02 03:47:52;;;;;;;1.50;1.00;;;14.70;98.20;;;;;;4973467;28;20465;-79
2022/07/02 03:50:19;;;;;;;1.50;1.00;;;14.70;98.20;;;;;;4974542;28;20462;-77
2022/07/02 03:52:46;;;;;;;1.50;1.10;;;14.70;98.20;;;;;;4973508;28;20482;-78
2022/07/02 03:55:12;;;;;;;1.50;1.00;;;14.70;98.20;;;;;;4971567;28;20469;-76
2022/07/02 03:57:41;;;;;;;1.50;1.10;;;14.70;98.20;;;;;;4978522;28;20494;-78
2022/07/02 04:00:09;;;;;;;1.50;1.10;;;14.70;98.20;;;;;;4973358;28;20466;-79
2022/07/02 04:02:36;;;;;;;1.50;1.00;;;14.70;98.20;;;;;;4973138;28;20469;-77
2022/07/02 04:05:03;;;;;;;1.50;1.10;;;14.70;98.20;;;;;;4974396;28;20494;-78
2022/07/02 04:07:29;;;;;;;1.50;1.00;;;14.70;98.20;;;;;;4978433;28;20575;-78
2022/07/02 04:09:56;;;;;;;1.50;1.00;;;14.70;98.20;;;;;;4975700;28;20470;-77
2022/07/02 04:12:23;;;;;;;1.50;1.00;;;14.80;98.20;;;;;;4976468;28;20491;-76
2022/07/02 04:14:51;;;;;;;1.50;1.00;;;14.70;98.20;;;;;;4973222;28;21005;-78
2022/07/02 04:17:18;;;;;;;1.50;1.00;;;14.70;98.20;;;;;;4973445;28;20466;-78
2022/07/02 04:19:44;;;;;;;1.47;1.00;;;14.70;98.20;;;;;;4973507;28;20543;-78
2022/07/02 04:22:11;;;;;;;1.50;1.00;;;14.70;98.20;;;;;;4972564;28;20563;-77
2022/07/02 04:24:38;;;;;;;1.50;1.10;;;14.70;98.20;;;;;;4973470;28;20490;-79
2022/07/02 04:27:05;;;;;;;1.43;1.00;;;14.80;98.20;;;;;;4972989;28;20488;-78
2022/07/02 04:29:32;;;;;;;1.47;1.00;;;14.80;98.20;;;;;;4977467;28;20533;-78
2022/07/02 04:32:01;;;;;;;1.47;1.00;;;14.80;98.20;;;;;;4971623;28;20504;-79
2022/07/02 04:34:28;;;;;;;1.50;1.00;;;14.80;98.20;;;;;;4972136;28;20486;-81
2022/07/02 04:36:54;;;;;;;1.50;1.00;;;14.90;98.20;;;;;;4965623;28;20487;-78
2022/07/02 04:39:21;;;;;;;1.47;1.00;;;15.00;98.20;;;;;;4975498;28;20505;-79
2022/07/02 04:41:48;;;;;;;1.43;1.00;;;15.00;98.20;;;;;;4970535;28;20989;-79
2022/07/02 04:44:15;;;;;;;1.47;1.00;;;15.10;98.20;;;;;;4984930;28;20484;-79
2022/07/02 04:46:41;;;;;;;1.50;1.00;;;15.20;98.20;;;;;;4976452;28;20466;-81
2022/07/02 04:49:10;;;;;;;1.50;1.00;;;15.40;98.20;;;;;;4974719;28;20461;-80
2022/07/02 04:51:37;;;;;;;1.47;1.00;;;15.50;98.20;;;;;;4971377;28;20484;-78
2022/07/02 04:54:04;;;;;;;1.50;1.00;;;15.70;98.20;;;;;;5010783;22;20502;-77
2022/07/02 04:56:31;;;;;;;1.50;1.00;;;15.90;98.20;;;;;;4987637;28;20460;-77
2022/07/02 04:58:58;;;;;;;1.50;1.10;;;16.10;98.20;;;;;;4991719;28;20465;-77
2022/07/02 05:01:24;;;;;;;1.50;1.00;;;16.40;98.20;;;;;;4967528;28;20478;-77
2022/07/02 05:03:51;;;;;;;1.50;1.10;;;16.50;98.20;;;;;;4991623;28;20859;-77
2022/07/02 05:06:21;;;;;;;1.50;1.00;;;16.80;98.20;;;;;;4949579;28;20486;-76
2022/07/02 05:08:48;;;;;;;1.50;1.00;;;17.10;98.20;;;;;;4973672;28;20466;-77
2022/07/02 05:11:16;;;;;;;1.50;1.00;;;17.40;98.20;;;;;;4963283;28;20865;-79
2022/07/02 05:13:43;;;;;;;1.50;1.00;;;17.70;98.20;;;;;;4985548;28;20552;-79
2022/07/02 05:16:10;;;;;;;1.50;1.00;;;18.00;98.20;;;;;;4964050;28;20494;-78
2022/07/02 05:18:37;;;;;;;1.50;0.93;;;18.30;98.20;;;;;;4974626;28;20493;-78
2022/07/02 05:21:04;;;;;;;1.50;0.90;;;18.50;98.10;;;;;;4971438;28;20468;-78
2022/07/02 05:23:39;;;;;;;1.50;0.90;;;18.70;96.80;;;;;;4974004;28;20465;-79
2022/07/02 05:26:06;;;;;;;1.50;0.90;;;18.90;95.90;;;;;;4967322;28;20509;-79
2022/07/02 05:28:33;;;;;;;1.50;0.90;;;19.10;95.30;;;;;;4976578;28;20466;-78
2022/07/02 05:31:03;;;;;;;1.50;0.90;;;19.30;94.70;;;;;;4968420;28;20658;-79
2022/07/02 05:33:35;;;;;;;1.50;0.90;;;19.50;93.70;;;;;;4971458;28;20494;-79
2022/07/02 05:36:02;;;;;;;1.50;1.00;;;19.60;93.20;;;;;;4963801;28;20482;-80
2022/07/02 05:38:29;;;;;;;1.50;1.00;;;19.70;91.30;;;;;;4989766;28;20829;-80
2022/07/02 05:40:57;;;;;;;1.50;0.90;;;19.70;92.20;;;;;;4964319;28;20502;-79
2022/07/02 05:43:24;;;;;;;1.47;0.90;;;19.80;92.70;;;;;;4989205;28;21033;-79
2022/07/02 05:45:51;;;;;;;1.50;0.90;;;20.00;92.20;;;;;;4976583;28;20881;-79
2022/07/02 05:48:17;;;;;;;1.43;0.90;;;20.00;91.40;;;;;;4971516;28;20820;-79
2022/07/02 05:50:44;;;;;;;1.50;0.90;;;20.10;91.50;;;;;;4976092;28;20900;-80
2022/07/02 05:53:11;;;;;;;1.47;0.90;;;20.20;90.70;;;;;;4962268;28;21046;-80
2022/07/02 05:55:38;;;;;;;1.43;0.90;;;20.40;90.10;;;;;;4975502;28;21001;-80
2022/07/02 05:58:08;;;;;;;1.50;1.10;;;20.50;89.10;;;;;;4965400;28;20482;-79
2022/07/02 06:00:36;;;;;;;1.47;0.90;;;20.50;89.40;;;;;;4975345;28;20512;-79
2022/07/02 06:03:02;;;;;;;1.43;0.90;;;20.70;89.80;;;;;;4972539;28;20561;-79
2022/07/02 06:08:14;;;;;;;1.50;0.90;;;21.00;88.50;;;;;;4967955;28;20479;-78
2022/07/02 06:10:40;;;;;;;1.50;0.90;;;21.10;88.90;;;;;;4975287;28;20514;-79
2022/07/02 06:13:09;;;;;;;1.50;0.90;;;21.40;88.50;;;;;;4974850;28;20601;-79
2022/07/02 06:15:36;;;;;;;1.50;0.90;;;21.50;87.60;;;;;;4972628;28;20517;-79
2022/07/02 06:18:03;;;;;;;1.47;0.90;;;21.40;88.40;;;;;;4981664;28;20583;-80
2022/07/02 06:20:37;;;;;;;1.50;0.90;;;21.50;88.50;;;;;;4975893;28;20470;-80
2022/07/02 06:23:04;;;;;;;1.50;0.90;;;21.60;88.40;;;;;;4970811;28;20478;-80
2022/07/02 06:25:30;;;;;;;1.50;0.90;;;21.60;87.80;;;;;;4973172;28;20895;-80
2022/07/02 06:27:57;;;;;;;1.50;0.90;;;21.90;87.90;;;;;;4978869;28;20490;-80
2022/07/02 06:30:25;;;;;;;1.43;0.90;;;22.10;86.10;;;;;;4974407;28;20466;-79
2022/07/02 06:32:52;;;;;;;1.50;0.90;;;22.20;86.60;;;;;;4970793;28;21167;-80
2022/07/02 06:35:19;;;;;;;1.50;1.00;;;22.40;86.30;;;;;;4975281;28;20644;-79
2022/07/02 06:37:46;;;;;;;1.47;0.90;;;22.50;85.70;;;;;;4980354;28;20485;-79
2022/07/02 06:40:13;;;;;;;1.50;0.90;;;22.70;86.00;;;;;;4971502;28;20545;-79
2022/07/02 06:42:40;;;;;;;1.50;0.80;;;22.90;84.90;;;;;;4956407;28;20585;-79
2022/07/02 06:45:08;;;;;;;1.50;0.90;;;23.00;83.80;;;;;;4974176;28;20492;-79
2022/07/02 06:47:40;;;;;;;1.47;0.80;;;23.20;83.50;;;;;;4974415;28;20557;-79
2022/07/02 06:50:09;;;;;;;1.43;0.80;;;23.20;83.30;;;;;;4974912;28;20466;-79
2022/07/02 06:52:36;;;;;;;1.50;0.90;;;23.30;83.30;;;;;;4977834;28;20525;-79
2022/07/02 06:55:03;;;;;;;1.50;0.87;;;23.50;82.10;;;;;;4976823;28;20928;-79
2022/07/02 06:57:30;;;;;;;1.50;0.90;;;23.70;82.60;;;;;;4973500;28;20470;-79
2022/07/02 06:59:57;;;;;;;1.47;0.90;;;23.80;81.40;;;;;;4974834;28;20466;-81
2022/07/02 07:02:24;;;;;;;1.50;0.90;;;24.00;80.60;;;;;;4973980;28;20485;-79
2022/07/02 07:04:52;;;;;;;1.50;0.90;;;24.00;80.40;;;;;;4973907;28;20612;-79
2022/07/02 07:07:21;;;;;;;1.47;0.80;;;24.10;79.20;;;;;;4973626;28;20465;-79
2022/07/02 07:09:48;;;;;;;1.50;0.90;;;23.90;79.80;;;;;;4964074;28;20505;-78
2022/07/02 07:12:18;;;;;;;1.50;0.90;;;23.80;80.60;;;;;;4967878;28;20549;-80
2022/07/02 07:14:45;;;;;;;1.47;0.80;;;24.00;80.50;;;;;;4973146;28;20573;-79
2022/07/02 07:17:12;;;;;;;1.47;0.83;;;24.30;79.80;;;;;;4969456;28;20528;-80
2022/07/02 07:19:39;;;;;;;1.50;0.90;;;24.60;78.50;;;;;;4970582;28;20502;-79
2022/07/02 07:22:08;;;;;;;1.47;0.90;;;24.60;76.90;;;;;;4968768;28;20497;-79
2022/07/02 07:24:36;;;;;;;1.50;0.90;;;24.40;78.30;;;;;;4973607;28;20549;-78
2022/07/02 07:27:03;;;;;;;1.43;0.87;;;24.70;77.70;;;;;;4966530;28;20532;-79
2022/07/02 07:29:30;;;;;;;1.50;1.00;;;24.80;78.00;;;;;;4976153;28;20473;-79
2022/07/02 07:31:57;;;;;;;1.47;0.90;;;25.00;76.90;;;;;;4958523;28;20500;-79
2022/07/02 07:34:24;;;;;;;1.50;0.90;;;25.00;76.60;;;;;;4969286;28;20502;-78
2022/07/02 07:36:53;;;;;;;1.47;0.90;;;25.10;76.20;;;;;;4960688;28;20605;-79
2022/07/02 07:39:21;;;;;;;1.47;0.80;;;25.20;75.70;;;;;;4970794;28;20466;-79
2022/07/02 07:41:48;;;;;;;1.50;0.87;;;25.50;74.50;;;;;;4965268;28;20529;-79
2022/07/02 07:44:15;;;;;;;1.50;0.90;;;25.60;74.80;;;;;;4970838;28;20577;-79
2022/07/02 07:46:42;;;;;;;1.50;0.90;;;25.60;74.60;;;;;;4969465;28;20525;-80
2022/07/02 07:49:10;;;;;;;1.47;0.80;;;25.60;74.40;;;;;;4970813;28;20493;-79
2022/07/02 07:51:37;;;;;;;1.50;0.80;;;25.60;73.40;;;;;;4957339;28;20492;-79
2022/07/02 07:54:04;;;;;;;1.47;0.80;;;25.60;72.50;;;;;;4969573;28;20552;-80
2022/07/02 07:56:33;;;;;;;1.47;0.80;;;25.60;72.70;;;;;;4968157;28;20470;-78
2022/07/02 07:59:00;;;;;;;1.47;0.83;;;25.60;72.50;;;;;;4968375;28;20583;-79
2022/07/02 08:01:27;;;;;;;1.47;0.80;;;25.60;73.60;;;;;;4966161;28;20470;-80
2022/07/02 08:03:53;;;;;;;1.43;0.90;;;25.50;72.90;;;;;;4963486;28;20466;-79
2022/07/02 08:06:20;;;;;;;1.50;0.80;;;25.70;73.30;;;;;;4958519;28;20564;-80
2022/07/02 08:08:47;;;;;;;1.47;0.97;;;26.00;72.20;;;;;;4968129;28;21041;-80
2022/07/02 08:11:14;;;;;;;1.47;0.80;;;26.30;70.60;;;;;;4955381;28;20501;-79
2022/07/02 08:13:42;;;;;;;1.47;0.80;;;26.60;71.00;;;;;;4974556;28;20468;-78
2022/07/02 08:16:09;;;;;;;1.47;0.90;;;26.40;68.60;;;;;;4970189;28;21344;-78
2022/07/02 08:18:36;;;;;;;1.47;0.80;;;26.30;68.10;;;;;;4968931;28;20577;-79
2022/07/02 08:21:03;;;;;;;1.50;0.90;;;26.30;68.10;;;;;;4962185;28;20466;-79
2022/07/02 08:23:29;;;;;;;1.47;0.80;;;26.50;68.80;;;;;;4974383;28;20465;-79
2022/07/02 08:25:56;;;;;;;1.43;0.80;;;26.60;66.90;;;;;;4970636;28;20581;-78
2022/07/02 08:28:24;;;;;;;1.47;0.80;;;26.80;66.10;;;;;;4971615;28;20465;-79
2022/07/02 08:30:52;;;;;;;1.50;0.80;;;26.90;66.10;;;;;;4961919;28;20529;-80
2022/07/02 08:33:19;;;;;;;1.50;0.80;;;27.20;65.40;;;;;;4970315;28;20461;-79
2022/07/02 08:35:46;;;;;;;1.50;0.80;;;27.20;64.50;;;;;;4967664;28;20588;-79
2022/07/02 08:38:13;;;;;;;1.50;0.90;;;27.30;64.30;;;;;;4973619;28;20472;-79
2022/07/02 08:40:43;;;;;;;1.50;0.90;;;27.30;63.40;;;;;;4964041;28;20545;-79
2022/07/02 08:43:12;;;;;;;1.50;0.90;;;27.30;63.80;;;;;;4976754;28;20497;-79
2022/07/02 08:45:40;;;;;;;1.47;0.80;;;27.30;63.60;;;;;;4973730;28;20485;-79
2022/07/02 08:48:09;;;;;;;1.40;0.80;;;26.80;65.00;;;;;;4973585;28;20969;-78
2022/07/02 08:50:37;;;;;;;1.43;0.80;;;26.90;65.90;;;;;;4972476;28;20548;-79
2022/07/02 08:53:05;;;;;;;1.50;0.80;;;27.00;63.40;;;;;;4954020;28;20500;-80
2022/07/02 08:55:34;;;;;;;1.47;0.80;;;26.90;64.20;;;;;;4963875;28;20489;-79
2022/07/02 08:58:02;;;;;;;1.47;0.80;;;26.70;63.60;;;;;;4965650;28;20470;-78
2022/07/02 09:00:29;;;;;;;1.40;0.90;;;26.70;62.70;;;;;;4968979;28;20531;-78
2022/07/02 09:02:59;;;;;;;1.47;0.80;;;26.60;62.90;;;;;;4971152;28;20827;-77
2022/07/02 09:05:29;;;;;;;1.47;0.80;;;26.50;62.80;;;;;;4970970;28;21156;-78
2022/07/02 09:07:57;;;;;;;1.47;0.80;;;26.40;63.00;;;;;;4975802;28;20547;-78
2022/07/02 09:10:26;;;;;;;1.50;0.90;;;26.20;63.10;;;;;;4971069;28;20462;-77
2022/07/02 09:12:54;;;;;;;1.47;0.80;;;26.20;63.40;;;;;;4961893;28;20596;-77
2022/07/02 09:15:21;;;;;;;1.43;0.80;;;26.40;63.70;;;;;;4967579;28;20489;-77
2022/07/02 09:17:49;;;;;;;1.50;0.80;;;26.70;62.30;;;;;;4968322;28;20469;-77
2022/07/02 09:20:16;;;;;;;1.50;0.87;;;27.00;61.50;;;;;;4969971;28;20540;-77
2022/07/02 09:22:47;;;;;;;1.47;0.80;;;27.30;63.10;;;;;;4974138;28;20493;-78
2022/07/02 09:25:16;;;;;;;1.50;0.90;;;27.70;59.20;;;;;;4977411;28;20539;-78
2022/07/02 09:27:44;;;;;;;1.40;0.80;;;28.10;59.00;;;;;;4971619;28;20468;-78
2022/07/02 09:30:16;;;;;;;1.50;0.80;;;28.30;57.70;;;;;;4970986;28;20472;-78
2022/07/02 09:32:45;;;;;;;1.43;0.80;;;28.20;57.70;;;;;;4963833;28;20495;-76
2022/07/02 09:35:20;;;;;;;1.47;0.80;;;28.30;57.70;;;;;;4967091;28;20497;-77
2022/07/02 09:37:49;;;;;;;1.40;0.80;;;28.50;57.60;;;;;;4967982;28;20469;-77
2022/07/02 09:40:17;;;;;;;1.47;0.80;;;28.60;58.90;;;;;;4974861;28;20480;-77
2022/07/02 09:42:47;;;;;;;1.40;0.80;;;28.90;58.80;;;;;;4975275;28;20543;-78
2022/07/02 09:45:16;;;;;;;1.40;0.80;;;28.80;57.60;;;;;;4969524;28;20576;-78
2022/07/02 09:47:48;;;;;;;1.47;0.80;;;29.00;60.40;;;;;;4970874;28;20974;-78
2022/07/02 09:50:17;;;;;;;1.47;0.80;;;29.30;57.50;;;;;;4970886;28;20493;-78
2022/07/02 09:52:51;;;;;;;1.47;0.80;;;29.50;58.00;;;;;;4961692;28;21024;-79
2022/07/02 09:55:26;;;;;;;1.47;0.80;;;29.60;57.70;;;;;;4970560;28;20525;-79
2022/07/02 09:57:55;;;;;;;1.47;0.80;;;29.60;58.40;;;;;;4959848;28;20877;-78
2022/07/02 10:00:23;;;;;;;1.40;0.80;;;29.60;57.40;;;;;;4973546;28;20624;-78
2022/07/02 10:02:53;;;;;;;1.40;0.80;;;29.50;57.00;;;;;;4962677;28;20493;-78
2022/07/02 10:05:26;;;;;;;1.40;0.80;;;29.50;57.20;;;;;;4976463;28;20849;-79
2022/07/02 10:07:57;;;;;;;1.43;0.80;;;29.70;57.10;;;;;;4961446;28;21138;-77
2022/07/02 10:10:33;;;;;;;1.40;0.80;;;29.80;55.20;;;;;;4974320;28;20497;-78
2022/07/02 10:13:00;;;;;;;1.43;0.80;;;29.80;54.60;;;;;;4980732;28;20480;-78
2022/07/02 10:16:06;;;;;;;;;;;;;;;;;;;;;
2022/07/02 10:18:36;;;;;;;1.40;0.80;;;29.90;56.20;;;;;;4975961;28;20469;-78
2022/07/02 10:21:25;;;;;;;1.47;0.80;;;29.80;54.70;;;;;;4973147;28;20485;-78
2022/07/02 10:23:57;;;;;;;1.40;0.80;;;29.30;55.90;;;;;;4980049;28;20476;-79
2022/07/02 10:26:42;;;;;;;1.43;0.80;;;29.30;55.90;;;;;;4970156;28;20545;-78
2022/07/02 10:29:38;;;;;;;1.47;0.80;;;29.20;56.40;;;;;;4999567;23;20493;-77
2022/07/02 10:32:40;;;;;;;1.43;0.80;;;29.20;57.50;;;;;;4983779;28;20488;-76
2022/07/02 10:35:11;;;;;;;1.43;0.80;;;29.60;58.20;;;;;;4995332;28;20464;-75
2022/07/02 10:38:06;;;;;;;1.70;1.20;;;30.10;57.20;;;;;;4987686;28;20491;-76
2022/07/02 10:41:18;;;;;;;1.47;0.80;;;30.60;55.30;;;;;;4982094;28;20845;-76
2022/07/02 10:44:23;;;;;;;1.47;0.80;;;31.00;55.10;;;;;;4964382;28;20472;-77
2022/07/02 10:50:14;;;;;;;1.43;0.80;;;31.90;53.80;;;;;;4952403;28;20498;-76
2022/07/02 10:59:57;;;;;;;1.40;0.80;;;32.00;54.30;;;;;;4948722;28;20481;-76
2022/07/02 11:02:51;;;;;;;1.43;0.80;;;32.30;52.80;;;;;;4936828;28;20479;-75
2022/07/02 11:14:59;;;;;;;1.43;0.80;;;30.80;54.10;;;;;;4934081;29;20517;-75
2022/07/02 11:17:31;;;;;;;1.50;0.80;;;30.60;55.20;;;;;;5013343;28;20493;-76
2022/07/02 11:20:04;;;;;;;1.40;0.80;;;30.80;57.40;;;;;;5016245;28;20483;-75
2022/07/02 11:25:42;;;;;;;1.70;1.30;;;31.50;54.30;;;;;;5005105;28;20487;-76
2022/07/02 11:28:21;;;;;;;1.40;0.80;;;31.80;53.60;;;;;;5002793;28;20298;-76
2022/07/02 11:30:59;;;;;;;1.47;0.80;;;31.90;53.30;;;;;;5012416;28;20214;-74
2022/07/02 11:33:27;;;;;;;1.47;0.90;;;32.00;53.30;;;;;;5012215;28;20474;-75
2022/07/02 11:36:10;;;;;;;1.40;0.80;;;32.30;54.10;;;;;;5000413;28;20209;-75
2022/07/02 11:38:44;;;;;;;1.40;0.80;;;32.40;53.90;;;;;;5014111;28;20660;-76
2022/07/02 11:41:28;;;;;;;1.40;0.80;;;32.40;51.80;;;;;;4999103;28;20758;-74
2022/07/02 11:47:03;;;;;;;1.43;0.80;;;32.90;51.90;;;;;;5008754;28;20722;-74
2022/07/02 11:50:12;;;;;;;1.40;0.80;;;32.70;50.90;;;;;;5017875;28;20224;-75
2022/07/02 11:52:59;;;;;;;1.43;0.80;;;32.80;52.00;;;;;;5015696;28;20208;-76
2022/07/02 11:55:33;;;;;;;1.43;0.80;;;32.90;52.80;;;;;;5014846;28;20212;-76
2022/07/02 11:58:11;;;;;;;1.40;0.80;;;32.60;51.90;;;;;;5013753;28;20381;-76
2022/07/02 12:00:58;;;;;;;1.40;0.80;;;32.30;52.20;;;;;;5013718;28;20208;-74
2022/07/02 12:03:33;;;;;;;1.40;0.80;;;32.00;52.90;;;;;;5019731;28;20233;-76
2022/07/02 12:06:24;;;;;;;1.40;0.80;;;31.90;53.40;;;;;;5003598;28;20251;-76
2022/07/02 12:08:58;;;;;;;1.40;0.80;;;32.00;53.20;;;;;;5008756;28;20688;-77
2022/07/02 12:11:33;;;;;;;1.40;0.80;;;31.60;52.50;;;;;;5001254;28;20242;-76
2022/07/02 12:14:07;;;;;;;1.40;0.80;;;31.90;56.00;;;;;;5012903;28;20216;-76
2022/07/02 12:16:43;;;;;;;1.40;0.80;;;32.20;53.10;;;;;;5003292;28;20755;-75
2022/07/02 12:19:13;;;;;;;1.47;0.80;;;31.90;50.90;;;;;;5012987;28;20266;-76
2022/07/02 12:21:43;;;;;;;1.40;0.80;;;31.30;52.50;;;;;;4999388;28;20670;-74
2022/07/02 12:24:22;;;;;;;1.40;0.80;;;31.20;52.20;;;;;;5002951;28;21190;-75
2022/07/02 12:26:52;;;;;;;1.43;0.80;;;31.20;52.60;;;;;;4991275;28;20296;-75
2022/07/02 12:32:15;;;;;;;1.40;0.80;;;31.50;53.40;;;;;;5002471;28;20987;-74
2022/07/02 12:34:44;;;;;;;1.40;0.80;;;31.80;54.00;;;;;;5010203;28;20219;-75
2022/07/02 12:37:21;;;;;;;1.43;0.80;;;31.50;51.40;;;;;;5007468;28;20525;-75
2022/07/02 12:39:58;;;;;;;1.43;0.80;;;31.00;52.40;;;;;;5004876;28;20518;-75
2022/07/02 12:42:26;;;;;;;1.40;0.80;;;30.60;53.50;;;;;;5005624;28;20563;-77
2022/07/02 12:44:59;;;;;;;1.43;0.80;;;30.70;52.70;;;;;;4999766;28;20973;-76
2022/07/02 12:47:28;;;;;;;1.43;0.80;;;30.80;53.60;;;;;;5000710;28;20212;-75
2022/07/02 12:49:57;;;;;;;1.40;0.80;;;31.00;53.40;;;;;;5003119;28;20507;-73
2022/07/02 12:52:30;;;;;;;1.40;0.80;;;31.00;52.60;;;;;;5008962;28;20505;-75
2022/07/02 12:55:00;;;;;;;1.40;0.80;;;31.00;53.50;;;;;;5006446;28;20478;-76
2022/07/02 12:57:28;;;;;;;1.40;0.80;;;31.10;53.30;;;;;;5008117;28;20889;-75
2022/07/02 12:59:55;;;;;;;1.40;0.80;;;30.90;53.60;;;;;;5004909;28;20507;-75
2022/07/02 13:02:28;;;;;;;1.40;0.87;;;31.00;53.90;;;;;;5000409;28;20503;-75
2022/07/02 13:04:56;;;;;;;1.40;0.80;;;31.00;53.40;;;;;;5008555;28;20542;-76
2022/07/02 13:07:26;;;;;;;1.40;0.80;;;31.10;54.90;;;;;;4994493;28;21053;-75
2022/07/02 13:10:01;;;;;;;1.40;0.80;;;31.30;54.80;;;;;;5005436;28;20525;-75
2022/07/02 13:12:28;;;;;;;1.40;0.80;;;31.80;52.60;;;;;;4992876;28;20471;-76
2022/07/02 13:14:59;;;;;;;1.40;0.80;;;32.10;52.30;;;;;;5014976;28;20467;-76
2022/07/02 13:17:26;;;;;;;1.40;0.80;;;32.20;52.80;;;;;;5003680;28;20537;-76
2022/07/02 13:19:53;;;;;;;1.40;0.80;;;32.50;52.60;;;;;;5014732;28;20806;-76
2022/07/02 13:22:26;;;;;;;1.40;0.80;;;32.60;51.90;;;;;;5001427;28;20515;-76
2022/07/02 13:24:53;;;;;;;1.40;0.80;;;32.50;51.90;;;;;;5004040;28;20201;-75
2022/07/02 13:27:23;;;;;;;1.40;0.80;;;32.40;51.90;;;;;;5012281;28;20238;-75
2022/07/02 13:29:51;;;;;;;1.40;0.80;;;32.50;54.00;;;;;;5019311;28;20329;-75
2022/07/02 13:32:19;;;;;;;1.50;1.30;;;32.60;54.30;;;;;;5011277;28;20823;-75
2022/07/02 13:37:14;;;;;;;1.40;0.80;;;32.40;52.90;;;;;;4959998;28;20486;-79